Time;durP1;ratioP1;P1;durP2;ratioP2;P2;SDS_P1;SDS_P2;PMS_P1;PMS_P2;Temp;Humidity;BMP_temperature;BMP_pressure;BME280_temperature;BME280_humidity;BME280_pressure;Samples;Min_cycle;Max_cycle;Signal;HPM_P1;HPM_P2
2023/08/03 00:01:53;;;;;;;;;;;17.30;99.90;;;;;;6026980;23;20033;-72
2023/08/03 00:04:19;;;;;;;;;;;17.20;99.90;;;;;;5999401;23;19938;-73
2023/08/03 00:06:44;;;;;;;;;;;17.20;99.90;;;;;;6026503;23;20527;-73
2023/08/03 00:09:10;;;;;;;;;;;17.10;99.90;;;;;;6026422;23;19930;-72
2023/08/03 00:11:35;;;;;;;;;;;17.20;99.90;;;;;;6026184;23;19951;-72
2023/08/03 00:14:01;;;;;;;;;;;17.20;99.90;;;;;;6024989;23;19929;-72
2023/08/03 00:16:27;;;;;;;;;;;17.20;99.90;;;;;;6025524;23;20234;-72
2023/08/03 00:18:52;;;;;;;;;;;17.20;99.90;;;;;;6018954;23;19928;-72
2023/08/03 00:21:17;;;;;;;;;;;17.30;99.90;;;;;;6022617;23;20680;-72
2023/08/03 00:23:43;;;;;;;;;;;17.30;99.90;;;;;;6024344;23;19996;-71
2023/08/03 00:26:08;;;;;;;;;;;17.20;99.90;;;;;;6021927;23;19929;-70
2023/08/03 00:28:34;;;;;;;;;;;17.20;99.90;;;;;;6021480;23;19930;-70
2023/08/03 00:30:59;;;;;;;;;;;17.10;99.90;;;;;;6023954;23;19929;-70
2023/08/03 00:33:25;;;;;;;;;;;17.10;99.90;;;;;;5997719;23;20011;-74
2023/08/03 00:35:50;;;;;;;;;;;17.10;99.90;;;;;;6023968;23;19923;-71
2023/08/03 00:38:16;;;;;;;;;;;17.10;99.90;;;;;;6024569;23;20301;-71
2023/08/03 00:40:41;;;;;;;;;;;17.10;99.90;;;;;;6022565;23;20024;-71
2023/08/03 00:43:07;;;;;;;;;;;17.10;99.90;;;;;;6020827;23;19988;-71
2023/08/03 00:45:32;;;;;;;;;;;17.00;99.90;;;;;;6021681;23;19973;-71
2023/08/03 00:47:58;;;;;;;;;;;17.00;99.90;;;;;;6019318;23;20023;-71
2023/08/03 00:50:25;;;;;;;;;;;17.00;99.90;;;;;;6019925;23;19957;-71
2023/08/03 00:52:50;;;;;;;;;;;17.10;99.90;;;;;;6021462;23;19937;-71
2023/08/03 00:55:16;;;;;;;;;;;17.10;99.90;;;;;;6015311;23;19964;-71
2023/08/03 00:57:42;;;;;;;;;;;17.10;99.90;;;;;;5995948;23;19929;-70
2023/08/03 01:00:08;;;;;;;;;;;17.20;99.90;;;;;;6016700;23;20081;-71
2023/08/03 01:02:33;;;;;;;;;;;17.20;99.90;;;;;;6022298;23;19966;-71
2023/08/03 01:04:58;;;;;;;;;;;17.10;99.90;;;;;;6023078;23;19925;-71
2023/08/03 01:07:25;;;;;;;;;;;17.10;99.90;;;;;;6021674;23;19928;-71
2023/08/03 01:09:50;;;;;;;;;;;17.00;99.90;;;;;;6020573;23;19926;-71
2023/08/03 01:12:16;;;;;;;;;;;17.00;99.90;;;;;;6020175;23;20033;-71
2023/08/03 01:14:43;;;;;;;;;;;17.00;99.90;;;;;;6023057;23;19962;-71
2023/08/03 01:17:09;;;;;;;;;;;16.90;99.90;;;;;;6023209;23;19978;-71
2023/08/03 01:19:34;;;;;;;;;;;16.80;99.90;;;;;;5998380;23;19931;-71
2023/08/03 01:22:00;;;;;;;;;;;16.80;99.90;;;;;;6025424;23;19946;-71
2023/08/03 01:24:25;;;;;;;;;;;16.80;99.90;;;;;;6024578;23;19937;-71
2023/08/03 01:26:52;;;;;;;;;;;16.80;99.90;;;;;;6023414;23;20436;-70
2023/08/03 01:29:18;;;;;;;;;;;16.80;99.90;;;;;;6023844;23;20384;-70
2023/08/03 01:31:43;;;;;;;;;;;16.80;99.90;;;;;;6023795;23;19923;-70
2023/08/03 01:34:12;;;;;;;;;;;16.80;99.90;;;;;;6023927;23;20081;-70
2023/08/03 01:36:38;;;;;;;;;;;16.80;99.90;;;;;;6023482;23;20346;-70
2023/08/03 01:39:05;;;;;;;;;;;16.80;99.90;;;;;;6022242;23;19936;-70
2023/08/03 01:41:31;;;;;;;;;;;16.80;99.90;;;;;;6022250;23;20539;-70
2023/08/03 01:44:19;;;;;;;;;;;16.80;99.90;;;;;;6021882;23;19929;-70
2023/08/03 01:46:44;;;;;;;;;;;16.80;99.90;;;;;;6023924;23;19930;-71
2023/08/03 01:49:10;;;;;;;;;;;16.80;99.90;;;;;;6023758;23;19937;-71
2023/08/03 01:51:36;;;;;;;;;;;16.80;99.90;;;;;;6022431;23;20319;-71
2023/08/03 01:54:01;;;;;;;;;;;16.70;99.90;;;;;;6020249;23;20492;-71
2023/08/03 01:56:27;;;;;;;;;;;16.60;99.90;;;;;;6022364;23;19924;-71
2023/08/03 01:58:52;;;;;;;;;;;16.70;99.90;;;;;;5999487;23;20601;-72
2023/08/03 02:01:18;;;;;;;;;;;16.70;99.90;;;;;;6023615;23;19922;-72
2023/08/03 02:03:43;;;;;;;;;;;16.70;99.90;;;;;;6024798;23;20578;-72
2023/08/03 02:06:09;;;;;;;;;;;16.70;99.90;;;;;;6024035;23;19926;-72
2023/08/03 02:08:34;;;;;;;;;;;16.70;99.90;;;;;;6024786;23;20288;-72
2023/08/03 02:11:00;;;;;;;;;;;16.70;99.90;;;;;;6022443;23;19927;-72
2023/08/03 02:13:25;;;;;;;;;;;16.70;99.90;;;;;;6022292;23;19921;-72
2023/08/03 02:15:51;;;;;;;;;;;16.70;99.90;;;;;;6023609;23;20050;-72
2023/08/03 02:18:16;;;;;;;;;;;16.70;99.90;;;;;;5996789;23;19942;-72
2023/08/03 02:20:42;;;;;;;;;;;16.60;99.90;;;;;;6025174;23;19929;-72
2023/08/03 02:23:07;;;;;;;;;;;16.60;99.90;;;;;;6023460;23;20711;-72
2023/08/03 02:25:33;;;;;;;;;;;16.60;99.90;;;;;;6024579;23;20259;-72
2023/08/03 02:27:58;;;;;;;;;;;16.60;99.90;;;;;;6006566;23;19955;-72
2023/08/03 02:30:24;;;;;;;;;;;16.60;99.90;;;;;;6022488;23;19930;-73
2023/08/03 02:32:49;;;;;;;;;;;16.50;99.90;;;;;;6021259;23;20476;-72
2023/08/03 02:35:15;;;;;;;;;;;16.50;99.90;;;;;;6023052;23;19942;-71
2023/08/03 02:37:40;;;;;;;;;;;16.40;99.90;;;;;;6018124;23;19927;-72
2023/08/03 02:40:08;;;;;;;;;;;16.40;99.90;;;;;;6023117;23;19990;-71
2023/08/03 02:42:34;;;;;;;;;;;16.40;99.90;;;;;;6022740;23;20044;-71
2023/08/03 02:44:59;;;;;;;;;;;16.50;99.90;;;;;;6022328;23;20007;-72
2023/08/03 02:47:25;;;;;;;;;;;16.50;99.90;;;;;;6025026;23;20348;-73
2023/08/03 02:49:50;;;;;;;;;;;16.50;99.90;;;;;;6024983;23;19925;-72
2023/08/03 02:52:16;;;;;;;;;;;16.50;99.90;;;;;;6023588;23;19930;-72
2023/08/03 02:54:41;;;;;;;;;;;16.40;99.90;;;;;;6024171;23;20005;-71
2023/08/03 02:57:07;;;;;;;;;;;16.40;99.90;;;;;;6023420;23;19963;-72
2023/08/03 02:59:32;;;;;;;;;;;16.30;99.90;;;;;;6023671;23;19935;-70
2023/08/03 03:01:58;;;;;;;;;;;16.40;99.90;;;;;;6022771;23;19957;-70
2023/08/03 03:04:23;;;;;;;;;;;16.40;99.90;;;;;;6023699;23;19994;-70
2023/08/03 03:06:49;;;;;;;;;;;16.30;99.90;;;;;;6026268;23;19960;-70
2023/08/03 03:09:14;;;;;;;;;;;16.40;99.90;;;;;;6025408;23;19932;-70
2023/08/03 03:11:40;;;;;;;;;;;16.40;99.90;;;;;;6026792;23;19937;-69
2023/08/03 03:14:05;;;;;;;;;;;16.50;99.90;;;;;;6024595;23;19928;-70
2023/08/03 03:16:31;;;;;;;;;;;16.50;99.90;;;;;;6025916;23;19922;-69
2023/08/03 03:18:56;;;;;;;;;;;16.50;99.90;;;;;;6026864;23;19928;-70
2023/08/03 03:21:22;;;;;;;;;;;16.50;99.90;;;;;;6026860;23;19932;-70
2023/08/03 03:23:48;;;;;;;;;;;16.50;99.90;;;;;;6025488;23;19938;-69
2023/08/03 03:26:13;;;;;;;;;;;16.50;99.90;;;;;;6026268;23;20470;-70
2023/08/03 03:28:39;;;;;;;;;;;16.50;99.90;;;;;;6024506;23;19975;-70
2023/08/03 03:31:04;;;;;;;;;;;16.50;99.90;;;;;;6026220;23;20333;-70
2023/08/03 03:33:30;;;;;;;;;;;16.50;99.90;;;;;;6024446;23;20029;-69
2023/08/03 03:35:55;;;;;;;;;;;16.50;99.90;;;;;;6026535;23;19923;-70
2023/08/03 03:38:21;;;;;;;;;;;16.40;99.90;;;;;;6025758;23;19964;-72
2023/08/03 03:40:46;;;;;;;;;;;16.40;99.90;;;;;;6026020;23;20007;-72
2023/08/03 03:43:11;;;;;;;;;;;16.40;99.90;;;;;;6023082;23;19964;-72
2023/08/03 03:45:37;;;;;;;;;;;16.30;99.90;;;;;;6025591;23;19930;-72
2023/08/03 03:48:02;;;;;;;;;;;16.20;99.90;;;;;;6025238;23;19953;-72
2023/08/03 03:50:28;;;;;;;;;;;16.20;99.90;;;;;;6024575;23;20009;-72
2023/08/03 03:52:54;;;;;;;;;;;16.20;99.90;;;;;;6024670;23;20030;-72
2023/08/03 03:55:19;;;;;;;;;;;16.20;99.90;;;;;;6025013;23;20478;-70
2023/08/03 03:57:45;;;;;;;;;;;16.30;99.90;;;;;;6024787;23;19978;-70
2023/08/03 04:00:10;;;;;;;;;;;16.40;99.90;;;;;;6023778;23;19961;-70
2023/08/03 04:02:36;;;;;;;;;;;16.40;99.90;;;;;;6026032;23;19960;-70
2023/08/03 04:05:01;;;;;;;;;;;16.50;99.90;;;;;;6026305;23;19952;-71
2023/08/03 04:07:27;;;;;;;;;;;16.50;99.90;;;;;;6025140;23;19930;-71
2023/08/03 04:09:52;;;;;;;;;;;16.60;99.90;;;;;;6023694;23;20382;-71
2023/08/03 04:12:18;;;;;;;;;;;16.70;99.90;;;;;;6026389;23;20008;-70
2023/08/03 04:14:43;;;;;;;;;;;16.80;99.90;;;;;;6024226;23;19926;-70
2023/08/03 04:17:09;;;;;;;;;;;16.80;99.90;;;;;;6023138;23;19935;-70
2023/08/03 04:19:34;;;;;;;;;;;16.90;99.90;;;;;;6023765;23;19953;-70
2023/08/03 04:22:00;;;;;;;;;;;17.00;99.90;;;;;;6024989;23;20760;-71
2023/08/03 04:24:26;;;;;;;;;;;17.00;99.90;;;;;;6024931;23;19935;-70
2023/08/03 04:26:51;;;;;;;;;;;17.10;99.90;;;;;;6025772;23;19925;-70
2023/08/03 04:29:17;;;;;;;;;;;17.20;99.90;;;;;;6022984;23;19929;-68
2023/08/03 04:31:42;;;;;;;;;;;17.20;99.90;;;;;;6024752;23;19924;-70
2023/08/03 04:34:08;;;;;;;;;;;17.30;99.90;;;;;;6024386;23;19948;-72
2023/08/03 04:36:33;;;;;;;;;;;17.30;99.90;;;;;;6024253;23;20003;-73
2023/08/03 04:38:59;;;;;;;;;;;17.30;99.90;;;;;;6024533;23;20078;-72
2023/08/03 04:41:24;;;;;;;;;;;17.40;99.90;;;;;;6024802;23;19925;-73
2023/08/03 04:43:50;;;;;;;;;;;17.40;99.90;;;;;;6023786;23;19925;-73
2023/08/03 04:46:15;;;;;;;;;;;17.50;99.90;;;;;;6023284;23;19979;-72
2023/08/03 04:48:41;;;;;;;;;;;17.60;99.90;;;;;;6025344;23;20295;-72
2023/08/03 04:51:06;;;;;;;;;;;17.60;99.90;;;;;;5997375;23;20421;-72
2023/08/03 04:53:32;;;;;;;;;;;17.70;99.90;;;;;;6025271;23;19927;-72
2023/08/03 04:55:57;;;;;;;;;;;17.70;99.90;;;;;;6023989;23;19986;-72
2023/08/03 04:58:22;;;;;;;;;;;17.90;99.90;;;;;;6023072;23;19981;-72
2023/08/03 05:00:48;;;;;;;;;;;18.00;99.90;;;;;;6023868;23;20212;-72
2023/08/03 05:03:13;;;;;;;;;;;18.10;99.90;;;;;;6025879;23;19949;-72
2023/08/03 05:05:39;;;;;;;;;;;18.10;99.90;;;;;;6026062;23;19922;-72
2023/08/03 05:08:04;;;;;;;;;;;18.10;99.90;;;;;;6025838;23;19938;-72
2023/08/03 05:10:30;;;;;;;;;;;18.20;99.90;;;;;;6024203;23;20367;-72
2023/08/03 05:12:55;;;;;;;;;;;18.20;99.90;;;;;;6023873;23;19935;-72
2023/08/03 05:15:21;;;;;;;;;;;18.40;99.90;;;;;;6024909;23;19961;-72
2023/08/03 05:17:49;;;;;;;;;;;18.50;99.90;;;;;;6024262;23;19924;-72
2023/08/03 05:20:15;;;;;;;;;;;18.70;99.90;;;;;;6025238;23;19942;-72
2023/08/03 05:22:40;;;;;;;;;;;18.70;99.90;;;;;;6025782;23;20364;-72
2023/08/03 05:25:06;;;;;;;;;;;18.80;99.90;;;;;;6024923;23;20003;-72
2023/08/03 05:27:31;;;;;;;;;;;18.90;99.90;;;;;;6024470;23;20637;-72
2023/08/03 05:29:58;;;;;;;;;;;19.00;99.90;;;;;;6024803;23;19975;-72
2023/08/03 05:32:26;;;;;;;;;;;19.10;99.90;;;;;;6024194;23;19934;-72
2023/08/03 05:34:52;;;;;;;;;;;19.30;99.90;;;;;;6024651;23;19947;-72
2023/08/03 05:37:17;;;;;;;;;;;19.50;99.90;;;;;;6023999;23;20481;-73
2023/08/03 05:39:43;;;;;;;;;;;19.60;99.90;;;;;;6024025;23;19932;-73
2023/08/03 05:42:12;;;;;;;;;;;19.80;99.90;;;;;;6000240;23;20366;-73
2023/08/03 05:44:38;;;;;;;;;;;19.90;99.90;;;;;;6024216;23;20216;-73
2023/08/03 05:47:04;;;;;;;;;;;20.10;99.90;;;;;;6023734;23;20510;-73
2023/08/03 05:49:30;;;;;;;;;;;20.20;99.90;;;;;;6022897;23;20295;-73
2023/08/03 05:51:56;;;;;;;;;;;20.40;99.90;;;;;;6024196;23;20384;-72
2023/08/03 05:54:21;;;;;;;;;;;20.50;99.90;;;;;;6023971;23;19966;-72
2023/08/03 05:56:47;;;;;;;;;;;20.60;99.90;;;;;;6023834;23;19959;-73
2023/08/03 05:59:22;;;;;;;;;;;20.80;99.90;;;;;;6025395;23;19955;-73
2023/08/03 06:01:48;;;;;;;;;;;20.90;99.90;;;;;;6022969;23;19973;-74
2023/08/03 06:04:15;;;;;;;;;;;21.00;99.90;;;;;;6025748;23;19924;-71
2023/08/03 06:06:41;;;;;;;;;;;21.00;99.90;;;;;;6025676;23;19927;-71
2023/08/03 06:09:09;;;;;;;;;;;21.00;99.90;;;;;;6021170;23;20329;-71
2023/08/03 06:11:34;;;;;;;;;;;21.00;99.90;;;;;;6024003;23;20676;-72
2023/08/03 06:14:00;;;;;;;;;;;21.00;99.90;;;;;;6023867;23;19932;-71
2023/08/03 06:16:25;;;;;;;;;;;21.10;99.90;;;;;;6023912;23;19946;-71
2023/08/03 06:18:55;;;;;;;;;;;21.20;99.90;;;;;;5999351;23;20016;-70
2023/08/03 06:21:22;;;;;;;;;;;21.20;99.90;;;;;;6024312;23;19933;-72
2023/08/03 06:23:49;;;;;;;;;;;21.20;99.90;;;;;;6024019;23;19948;-75
2023/08/03 06:26:16;;;;;;;;;;;21.30;99.90;;;;;;6023229;23;20258;-75
2023/08/03 06:28:42;;;;;;;;;;;21.40;99.90;;;;;;5998841;23;19928;-74
2023/08/03 06:31:15;;;;;;;;;;;21.40;99.90;;;;;;6024295;23;19935;-75
2023/08/03 06:33:42;;;;;;;;;;;21.50;99.90;;;;;;6024326;23;19946;-76
2023/08/03 06:36:08;;;;;;;;;;;21.50;99.90;;;;;;6023025;23;20020;-74
2023/08/03 06:38:35;;;;;;;;;;;21.60;99.90;;;;;;6023912;23;19935;-74
2023/08/03 06:41:01;;;;;;;;;;;21.70;99.90;;;;;;6027272;23;19950;-75
2023/08/03 06:43:26;;;;;;;;;;;21.60;99.90;;;;;;6024445;23;20515;-75
2023/08/03 06:45:52;;;;;;;;;;;21.70;99.90;;;;;;6027177;23;19936;-75
2023/08/03 06:48:17;;;;;;;;;;;21.70;99.90;;;;;;6025723;23;20456;-75
2023/08/03 06:50:43;;;;;;;;;;;21.70;99.90;;;;;;6025468;23;20000;-75
2023/08/03 06:53:09;;;;;;;;;;;21.70;99.90;;;;;;6022870;23;19930;-76
2023/08/03 06:55:35;;;;;;;;;;;21.60;99.90;;;;;;6025287;23;19971;-75
2023/08/03 06:58:00;;;;;;;;;;;21.60;99.90;;;;;;6023103;23;20755;-76
2023/08/03 07:00:26;;;;;;;;;;;21.60;99.90;;;;;;6020213;23;19931;-75
2023/08/03 07:02:52;;;;;;;;;;;21.70;99.90;;;;;;6018965;23;20030;-76
2023/08/03 07:05:18;;;;;;;;;;;21.70;99.90;;;;;;6022351;23;19928;-76
2023/08/03 07:07:43;;;;;;;;;;;21.70;99.90;;;;;;6023376;23;19992;-76
2023/08/03 07:10:09;;;;;;;;;;;21.60;99.90;;;;;;6017697;23;20380;-76
2023/08/03 07:12:35;;;;;;;;;;;21.60;99.90;;;;;;6017566;23;19928;-76
2023/08/03 07:15:01;;;;;;;;;;;21.60;99.90;;;;;;6019906;23;19939;-76
2023/08/03 07:17:26;;;;;;;;;;;21.60;99.90;;;;;;6022228;23;20119;-71
2023/08/03 07:19:52;;;;;;;;;;;21.60;99.90;;;;;;6020784;23;19943;-71
2023/08/03 07:22:23;;;;;;;;;;;21.60;99.90;;;;;;6023112;23;20040;-71
2023/08/03 07:24:49;;;;;;;;;;;21.70;99.90;;;;;;6021839;23;19924;-70
2023/08/03 07:27:15;;;;;;;;;;;21.70;99.90;;;;;;6023780;23;20207;-79
2023/08/03 07:29:42;;;;;;;;;;;21.70;99.90;;;;;;6020637;23;19979;-78
2023/08/03 07:32:08;;;;;;;;;;;21.70;99.90;;;;;;6024401;23;19926;-79
2023/08/03 07:34:33;;;;;;;;;;;21.70;99.90;;;;;;6024499;23;19950;-78
2023/08/03 07:36:59;;;;;;;;;;;21.60;99.90;;;;;;6023166;23;19950;-79
2023/08/03 07:39:25;;;;;;;;;;;21.60;99.90;;;;;;6021341;23;20260;-80
2023/08/03 07:41:50;;;;;;;;;;;21.70;99.90;;;;;;6022632;23;19948;-80
2023/08/03 07:44:17;;;;;;;;;;;21.80;99.90;;;;;;6021963;23;20338;-83
2023/08/03 07:46:43;;;;;;;;;;;21.80;99.90;;;;;;6025566;23;19924;-81
2023/08/03 07:49:08;;;;;;;;;;;21.90;99.90;;;;;;6026153;23;20272;-80
2023/08/03 07:51:34;;;;;;;;;;;21.90;99.90;;;;;;6000452;23;20303;-79
2023/08/03 07:53:59;;;;;;;;;;;21.90;99.90;;;;;;6027014;23;20004;-79
2023/08/03 07:56:25;;;;;;;;;;;21.90;99.90;;;;;;6024768;23;19925;-79
2023/08/03 07:58:50;;;;;;;;;;;21.90;99.90;;;;;;6022580;23;20027;-79
2023/08/03 08:01:17;;;;;;;;;;;22.00;99.90;;;;;;6026619;23;19952;-78
2023/08/03 08:03:43;;;;;;;;;;;22.00;99.90;;;;;;6001197;23;19956;-79
2023/08/03 08:06:08;;;;;;;;;;;22.00;99.90;;;;;;6026557;23;19992;-78
2023/08/03 08:08:34;;;;;;;;;;;22.00;99.90;;;;;;6024902;23;20279;-80
2023/08/03 08:11:00;;;;;;;;;;;22.00;99.90;;;;;;6024944;23;19933;-68
2023/08/03 08:13:25;;;;;;;;;;;22.00;99.90;;;;;;6025077;23;20740;-68
2023/08/03 08:15:51;;;;;;;;;;;21.90;99.90;;;;;;6019844;23;19932;-68
2023/08/03 08:18:16;;;;;;;;;;;21.90;99.90;;;;;;6020554;23;19931;-68
2023/08/03 08:20:44;;;;;;;;;;;21.90;99.90;;;;;;6023460;23;20323;-68
2023/08/03 08:23:10;;;;;;;;;;;21.90;99.90;;;;;;6023750;23;20035;-67
2023/08/03 08:25:37;;;;;;;;;;;22.00;99.90;;;;;;6024030;23;20361;-68
2023/08/03 08:28:03;;;;;;;;;;;22.00;99.90;;;;;;6023930;23;20015;-67
2023/08/03 08:30:28;;;;;;;;;;;22.10;99.90;;;;;;6024616;23;19917;-78
2023/08/03 08:32:54;;;;;;;;;;;22.10;99.90;;;;;;6024127;23;19933;-67
2023/08/03 08:35:19;;;;;;;;;;;22.20;99.90;;;;;;6022738;23;19981;-67
2023/08/03 08:37:45;;;;;;;;;;;22.20;99.90;;;;;;6026793;23;19925;-68
2023/08/03 08:40:13;;;;;;;;;;;22.30;99.90;;;;;;6023643;23;19925;-67
2023/08/03 08:42:39;;;;;;;;;;;22.40;99.90;;;;;;6022918;23;19944;-67
2023/08/03 08:45:05;;;;;;;;;;;22.50;99.90;;;;;;6023366;23;19928;-68
2023/08/03 08:47:31;;;;;;;;;;;22.50;99.90;;;;;;6024677;23;19928;-67
2023/08/03 08:49:56;;;;;;;;;;;22.50;99.90;;;;;;6023005;23;19928;-68
2023/08/03 08:52:23;;;;;;;;;;;22.60;99.90;;;;;;6022658;23;20525;-68
2023/08/03 08:54:48;;;;;;;;;;;22.60;99.90;;;;;;6020528;23;19965;-68
2023/08/03 08:57:15;;;;;;;;;;;22.50;99.90;;;;;;6023930;23;19951;-68
2023/08/03 08:59:42;;;;;;;;;;;22.50;99.90;;;;;;6022889;23;19932;-68
2023/08/03 09:02:08;;;;;;;;;;;22.60;99.90;;;;;;5997635;23;20051;-68
2023/08/03 09:04:34;;;;;;;;;;;22.60;99.90;;;;;;6023579;23;19932;-68
2023/08/03 09:06:59;;;;;;;;;;;22.70;99.90;;;;;;6025186;23;19929;-67
2023/08/03 09:09:27;;;;;;;;;;;22.70;99.90;;;;;;6024550;23;19925;-81
2023/08/03 09:11:55;;;;;;;;;;;22.70;99.90;;;;;;6025567;23;19942;-79
2023/08/03 09:14:21;;;;;;;;;;;22.80;99.90;;;;;;6023672;23;19978;-81
2023/08/03 09:16:47;;;;;;;;;;;22.80;99.90;;;;;;6025263;23;20312;-79
2023/08/03 09:19:12;;;;;;;;;;;22.80;99.90;;;;;;6025135;23;19952;-79
2023/08/03 09:21:38;;;;;;;;;;;22.80;99.90;;;;;;6024202;23;20325;-81
2023/08/03 09:24:17;;;;;;;;;;;22.80;99.90;;;;;;6025521;23;19954;-81
2023/08/03 09:26:44;;;;;;;;;;;22.90;99.90;;;;;;6016502;23;19970;-66
2023/08/03 09:29:15;;;;;;;;;;;23.00;99.90;;;;;;6022714;23;19924;-67
2023/08/03 09:31:41;;;;;;;;;;;23.10;99.90;;;;;;6022790;23;19990;-66
2023/08/03 09:34:06;;;;;;;;;;;23.20;99.90;;;;;;6022761;23;19998;-67
2023/08/03 09:36:32;;;;;;;;;;;23.30;99.90;;;;;;6022948;23;19931;-67
2023/08/03 09:39:13;;;;;;;;;;;23.40;99.90;;;;;;6024545;23;19933;-66
2023/08/03 09:41:39;;;;;;;;;;;23.50;99.90;;;;;;6020588;23;20021;-67
2023/08/03 09:44:05;;;;;;;;;;;23.50;99.90;;;;;;6019685;23;20053;-67
2023/08/03 09:46:31;;;;;;;;;;;23.50;99.90;;;;;;6020395;23;19977;-67
2023/08/03 09:48:57;;;;;;;;;;;23.60;99.90;;;;;;6016788;23;19936;-67
2023/08/03 09:51:27;;;;;;;;;;;23.80;99.90;;;;;;6022595;23;20132;-67
2023/08/03 09:53:56;;;;;;;;;;;24.00;99.90;;;;;;6017040;23;19956;-67
2023/08/03 09:56:24;;;;;;;;;;;24.10;99.90;;;;;;6019720;23;19959;-67
2023/08/03 09:58:54;;;;;;;;;;;24.10;99.90;;;;;;6018442;23;19928;-67
2023/08/03 10:01:23;;;;;;;;;;;24.20;99.90;;;;;;6020676;23;19956;-67
2023/08/03 10:03:51;;;;;;;;;;;24.40;99.90;;;;;;6017184;23;19951;-66
2023/08/03 10:06:17;;;;;;;;;;;24.60;99.90;;;;;;6019227;23;20255;-67
2023/08/03 10:08:46;;;;;;;;;;;24.70;99.90;;;;;;6017391;23;20026;-67
2023/08/03 10:11:12;;;;;;;;;;;24.80;99.90;;;;;;6019297;23;19924;-67
2023/08/03 10:13:40;;;;;;;;;;;24.90;99.90;;;;;;6018620;23;19994;-67
2023/08/03 10:16:06;;;;;;;;;;;24.90;99.90;;;;;;6021337;23;19956;-66
2023/08/03 10:18:33;;;;;;;;;;;25.00;99.90;;;;;;6021764;23;20021;-67
2023/08/03 10:20:59;;;;;;;;;;;25.10;99.90;;;;;;6022106;23;19962;-66
2023/08/03 10:23:25;;;;;;;;;;;25.20;99.90;;;;;;6021329;23;20005;-67
2023/08/03 10:25:54;;;;;;;;;;;25.40;99.90;;;;;;6021643;23;19929;-67
2023/08/03 10:28:22;;;;;;;;;;;25.40;99.90;;;;;;6021797;23;19971;-66
2023/08/03 10:31:00;;;;;;;;;;;25.50;99.90;;;;;;6022750;23;20536;-67
2023/08/03 10:33:45;;;;;;;;;;;25.70;99.90;;;;;;6019975;23;19956;-66
2023/08/03 10:36:39;;;;;;;;;;;25.70;99.90;;;;;;6022319;23;19943;-66
2023/08/03 10:39:14;;;;;;;;;;;25.80;99.90;;;;;;6020858;23;20422;-66
2023/08/03 10:41:46;;;;;;;;;;;25.90;99.90;;;;;;6038631;23;20031;-76
2023/08/03 10:44:12;;;;;;;;;;;26.00;99.90;;;;;;6020899;23;20535;-76
2023/08/03 10:46:37;;;;;;;;;;;25.90;99.90;;;;;;6023462;23;20024;-75
2023/08/03 10:49:18;;;;;;;;;;;26.10;99.90;;;;;;6024699;23;20510;-76
2023/08/03 10:51:47;;;;;;;;;;;26.20;99.90;;;;;;6023124;23;19937;-81
2023/08/03 10:54:13;;;;;;;;;;;26.00;99.90;;;;;;6023473;23;19921;-80
2023/08/03 10:56:39;;;;;;;;;;;26.00;99.90;;;;;;6023188;23;19927;-80
2023/08/03 10:59:04;;;;;;;;;;;26.10;99.90;;;;;;6023953;23;20348;-81
2023/08/03 11:01:30;;;;;;;;;;;26.00;99.90;;;;;;6023790;23;19932;-80
2023/08/03 11:03:56;;;;;;;;;;;26.00;99.90;;;;;;6022919;23;19961;-77
2023/08/03 11:06:22;;;;;;;;;;;25.90;99.90;;;;;;6023764;23;20003;-79
2023/08/03 11:08:47;;;;;;;;;;;25.90;99.90;;;;;;6023572;23;19936;-81
2023/08/03 11:11:14;;;;;;;;;;;25.70;99.90;;;;;;6024755;23;19948;-80
2023/08/03 11:13:42;;;;;;;;;;;25.70;99.90;;;;;;6022640;23;20226;-79
2023/08/03 11:16:07;;;;;;;;;;;25.60;99.90;;;;;;6023703;23;19931;-81
2023/08/03 11:18:35;;;;;;;;;;;25.60;99.90;;;;;;6021347;23;19927;-66
2023/08/03 11:21:01;;;;;;;;;;;25.50;99.90;;;;;;6023769;23;20055;-67
2023/08/03 11:23:31;;;;;;;;;;;25.50;99.90;;;;;;6022588;23;20461;-66
2023/08/03 11:25:57;;;;;;;;;;;25.50;99.90;;;;;;5996327;23;20026;-67
2023/08/03 11:28:22;;;;;;;;;;;25.50;99.90;;;;;;6020251;23;20739;-67
2023/08/03 11:30:48;;;;;;;;;;;25.50;99.90;;;;;;6022774;23;19977;-67
2023/08/03 11:33:14;;;;;;;;;;;25.50;99.90;;;;;;6021670;23;20009;-66
2023/08/03 11:35:40;;;;;;;;;;;25.60;99.90;;;;;;6021978;23;19930;-66
2023/08/03 11:38:06;;;;;;;;;;;25.60;99.90;;;;;;6022733;23;20057;-66
2023/08/03 11:40:32;;;;;;;;;;;25.60;99.90;;;;;;6021615;23;19930;-67
2023/08/03 11:42:57;;;;;;;;;;;25.60;99.90;;;;;;6022810;23;20319;-66
2023/08/03 11:45:23;;;;;;;;;;;25.60;99.90;;;;;;6021101;23;19925;-66
2023/08/03 11:47:48;;;;;;;;;;;25.50;99.90;;;;;;6021291;23;20041;-67
2023/08/03 11:50:17;;;;;;;;;;;25.50;99.90;;;;;;6021493;23;20440;-67
2023/08/03 11:52:43;;;;;;;;;;;25.50;99.90;;;;;;6023766;23;20002;-67
2023/08/03 11:55:08;;;;;;;;;;;25.50;99.90;;;;;;6019613;23;20045;-75
2023/08/03 12:00:20;;;;;;;;;;;25.50;99.90;;;;;;6021071;23;19960;-76
2023/08/03 12:02:46;;;;;;;;;;;25.50;99.90;;;;;;6019168;23;20258;-78
2023/08/03 12:05:11;;;;;;;;;;;25.50;99.90;;;;;;6019077;23;19928;-75
2023/08/03 12:07:37;;;;;;;;;;;25.40;99.90;;;;;;6019059;23;19930;-75
2023/08/03 12:10:12;;;;;;;;;;;25.30;99.90;;;;;;6019949;23;19930;-75
2023/08/03 12:12:39;;;;;;;;;;;25.30;99.90;;;;;;6019114;23;19939;-74
2023/08/03 12:15:05;;;;;;;;;;;25.40;99.90;;;;;;6017765;23;19927;-72
2023/08/03 12:17:31;;;;;;;;;;;25.40;99.90;;;;;;6017896;23;19932;-75
2023/08/03 12:19:56;;;;;;;;;;;25.40;99.90;;;;;;6018565;23;20094;-75
2023/08/03 12:22:22;;;;;;;;;;;25.30;99.90;;;;;;6019078;23;19951;-76
2023/08/03 12:24:47;;;;;;;;;;;25.30;99.90;;;;;;6018289;23;19979;-76
2023/08/03 12:27:12;;;;;;;;;;;25.30;99.90;;;;;;6018042;23;19925;-76
2023/08/03 12:29:38;;;;;;;;;;;25.40;99.90;;;;;;6017525;23;19930;-75
2023/08/03 12:32:04;;;;;;;;;;;25.50;99.90;;;;;;6018879;23;20004;-66
2023/08/03 12:34:29;;;;;;;;;;;25.50;99.90;;;;;;6021137;23;19963;-66
2023/08/03 12:36:55;;;;;;;;;;;25.50;99.90;;;;;;6014573;23;20378;-67
2023/08/03 12:39:20;;;;;;;;;;;25.50;99.90;;;;;;6015618;23;19938;-66
2023/08/03 12:41:46;;;;;;;;;;;25.50;99.90;;;;;;6018933;23;20370;-67
2023/08/03 12:44:11;;;;;;;;;;;25.50;99.90;;;;;;6017583;23;19981;-66
2023/08/03 12:46:37;;;;;;;;;;;25.50;99.90;;;;;;6016218;23;19933;-67
2023/08/03 12:49:03;;;;;;;;;;;25.50;99.90;;;;;;6016090;23;19932;-75
2023/08/03 12:51:30;;;;;;;;;;;25.50;99.90;;;;;;6018239;23;19924;-75
2023/08/03 12:53:55;;;;;;;;;;;25.60;99.90;;;;;;6018173;23;20198;-76
2023/08/03 12:56:21;;;;;;;;;;;25.70;99.90;;;;;;6016509;23;19933;-75
2023/08/03 12:58:46;;;;;;;;;;;25.70;99.90;;;;;;6018097;23;19972;-75
2023/08/03 13:01:12;;;;;;;;;;;25.70;99.90;;;;;;6018066;23;20607;-74
2023/08/03 13:03:38;;;;;;;;;;;25.60;99.90;;;;;;6019515;23;20691;-73
2023/08/03 13:06:03;;;;;;;;;;;25.50;99.90;;;;;;6018759;23;19933;-66
2023/08/03 13:08:29;;;;;;;;;;;25.50;99.90;;;;;;6017311;23;19976;-65
2023/08/03 13:10:55;;;;;;;;;;;25.50;99.90;;;;;;6016758;23;19937;-65
2023/08/03 13:13:20;;;;;;;;;;;25.50;99.90;;;;;;6018247;23;19939;-65
2023/08/03 13:15:46;;;;;;;;;;;25.50;99.90;;;;;;6024304;23;19925;-66
2023/08/03 13:18:12;;;;;;;;;;;25.50;99.90;;;;;;6023772;23;19926;-66
2023/08/03 13:20:38;;;;;;;;;;;25.60;99.90;;;;;;5997410;23;19923;-65
2023/08/03 13:23:03;;;;;;;;;;;25.80;99.90;;;;;;6021312;23;19975;-65
2023/08/03 13:25:29;;;;;;;;;;;25.90;99.90;;;;;;6023651;23;20478;-65
2023/08/03 13:27:56;;;;;;;;;;;26.10;99.90;;;;;;6023316;23;19925;-65
2023/08/03 13:30:22;;;;;;;;;;;26.10;99.90;;;;;;6022542;23;19933;-66
2023/08/03 13:32:47;;;;;;;;;;;26.10;99.90;;;;;;6018379;23;19957;-66
2023/08/03 13:35:13;;;;;;;;;;;26.10;99.90;;;;;;6017680;23;19951;-66
2023/08/03 13:37:39;;;;;;;;;;;25.90;99.90;;;;;;6018112;23;20412;-66
2023/08/03 13:40:05;;;;;;;;;;;25.90;99.90;;;;;;6021146;23;19931;-66
2023/08/03 13:42:30;;;;;;;;;;;25.90;99.90;;;;;;6024934;23;19947;-65
2023/08/03 13:44:56;;;;;;;;;;;26.00;99.90;;;;;;6023306;23;19933;-65
2023/08/03 13:47:21;;;;;;;;;;;26.10;99.90;;;;;;6019366;23;19934;-67
2023/08/03 13:49:47;;;;;;;;;;;26.10;99.90;;;;;;6017232;23;19937;-65
2023/08/03 13:52:12;;;;;;;;;;;26.10;99.90;;;;;;6020168;23;19952;-65
2023/08/03 13:54:38;;;;;;;;;;;26.00;99.90;;;;;;6019442;23;19969;-66
2023/08/03 13:57:04;;;;;;;;;;;26.00;99.90;;;;;;6019505;23;19932;-65
2023/08/03 13:59:29;;;;;;;;;;;26.00;99.90;;;;;;6021491;23;19929;-66
2023/08/03 14:01:55;;;;;;;;;;;26.00;99.90;;;;;;6024341;23;20013;-66
2023/08/03 14:04:22;;;;;;;;;;;26.10;99.90;;;;;;6022553;23;20380;-65
2023/08/03 14:06:48;;;;;;;;;;;26.30;99.90;;;;;;6023005;23;19929;-66
2023/08/03 14:09:13;;;;;;;;;;;26.30;99.90;;;;;;6021244;23;19995;-65
2023/08/03 14:11:39;;;;;;;;;;;26.10;99.90;;;;;;6023394;23;19958;-65
2023/08/03 14:14:07;;;;;;;;;;;26.00;99.90;;;;;;6020988;23;19929;-65